createdAt,value
2018-10-07T00:01:06.969Z,12.44
2018-10-07T00:03:35.744Z,12.37
2018-10-07T00:06:04.589Z,12.37
2018-10-07T00:08:34.038Z,12.34
2018-10-07T00:11:02.818Z,12.26
2018-10-07T00:13:31.917Z,12.25
2018-10-07T00:16:00.840Z,12.22
2018-10-07T00:18:29.675Z,12.23
2018-10-07T00:20:58.742Z,12.21
2018-10-07T00:23:27.590Z,12.16
2018-10-07T00:25:56.389Z,12.17
2018-10-07T00:28:25.218Z,12.22
2018-10-07T00:30:53.994Z,12.20
2018-10-07T00:33:23.190Z,12.18
2018-10-07T00:35:52.573Z,12.09
2018-10-07T00:38:21.405Z,12.10
2018-10-07T00:40:50.429Z,12.11
2018-10-07T00:43:19.288Z,12.17
2018-10-07T00:45:48.066Z,12.10
2018-10-07T00:48:16.898Z,12.12
2018-10-07T00:50:46.518Z,12.06
2018-10-07T00:53:15.608Z,11.97
2018-10-07T00:55:44.319Z,11.94
2018-10-07T00:58:13.633Z,11.87
2018-10-07T01:00:42.647Z,11.94
2018-10-07T01:03:12.205Z,11.94
2018-10-07T01:05:41.304Z,11.91
2018-10-07T01:08:10.187Z,11.86
2018-10-07T01:10:38.978Z,11.79
2018-10-07T01:13:07.788Z,11.72
2018-10-07T01:15:36.963Z,11.72
2018-10-07T01:18:05.695Z,11.64
2018-10-07T01:20:34.745Z,11.61
2018-10-07T01:23:03.492Z,11.57
2018-10-07T01:25:32.355Z,11.52
2018-10-07T01:28:01.464Z,11.50
2018-10-07T01:30:30.305Z,11.47
2018-10-07T01:32:59.565Z,11.47
2018-10-07T01:35:28.414Z,11.44
2018-10-07T01:37:57.911Z,11.44
2018-10-07T01:40:27.656Z,11.41
2018-10-07T01:42:57.086Z,11.45
2018-10-07T01:45:25.836Z,11.40
2018-10-07T01:47:55.114Z,11.41
2018-10-07T01:50:25.329Z,11.40
2018-10-07T01:52:54.398Z,11.40
2018-10-07T01:55:23.854Z,11.42
2018-10-07T01:57:52.664Z,11.39
2018-10-07T02:00:21.706Z,11.31
2018-10-07T02:02:50.714Z,11.29
2018-10-07T02:05:20.091Z,11.26
2018-10-07T02:07:48.896Z,11.26
2018-10-07T02:10:18.042Z,11.23
2018-10-07T02:12:47.182Z,11.19
2018-10-07T02:15:16.368Z,11.20
2018-10-07T02:17:46.130Z,11.25
2018-10-07T02:20:14.879Z,11.26
2018-10-07T02:22:44.201Z,11.26
2018-10-07T02:25:13.293Z,11.23
2018-10-07T02:27:42.054Z,11.17
2018-10-07T02:30:11.336Z,11.20
2018-10-07T02:32:40.096Z,11.21
2018-10-07T02:35:08.878Z,11.15
2018-10-07T02:37:37.680Z,11.10
2018-10-07T02:40:06.436Z,11.08
2018-10-07T02:42:35.726Z,11.09
2018-10-07T02:45:11.302Z,11.11
2018-10-07T02:47:40.355Z,11.11
2018-10-07T02:50:20.011Z,11.11
2018-10-07T02:52:50.895Z,11.10
2018-10-07T02:55:22.521Z,11.09
2018-10-07T02:57:52.871Z,11.07
2018-10-07T03:00:21.645Z,11.09
2018-10-07T03:02:51.222Z,11.10
2018-10-07T03:05:20.324Z,11.06
2018-10-07T03:07:49.474Z,11.01
2018-10-07T03:10:19.529Z,10.99
2018-10-07T03:12:48.704Z,11.02
2018-10-07T03:15:17.572Z,11.03
2018-10-07T03:17:46.706Z,11.00
2018-10-07T03:20:15.489Z,10.94
2018-10-07T03:22:44.758Z,10.93
2018-10-07T03:25:13.783Z,10.85
2018-10-07T03:27:43.106Z,10.84
2018-10-07T03:30:12.434Z,10.82
2018-10-07T03:32:41.220Z,10.81
2018-10-07T03:35:10.291Z,10.78
2018-10-07T03:37:39.337Z,10.76
2018-10-07T03:40:08.464Z,10.78
2018-10-07T03:42:37.280Z,10.75
2018-10-07T03:45:06.136Z,10.73
2018-10-07T03:47:34.875Z,10.70
2018-10-07T03:50:04.067Z,10.72
2018-10-07T03:52:32.904Z,10.68
2018-10-07T03:55:02.058Z,10.68
2018-10-07T03:57:31.188Z,10.67
2018-10-07T04:00:00.590Z,10.64
2018-10-07T04:02:29.406Z,10.66
2018-10-07T04:04:58.179Z,10.63
2018-10-07T04:07:26.895Z,10.56
2018-10-07T04:09:55.733Z,10.54
2018-10-07T04:12:24.531Z,10.52
2018-10-07T04:14:53.340Z,10.47
2018-10-07T04:17:22.574Z,10.44
2018-10-07T04:19:51.380Z,10.43
2018-10-07T04:22:20.170Z,10.34
2018-10-07T04:24:49.044Z,10.28
2018-10-07T04:27:17.836Z,10.27
2018-10-07T04:29:46.847Z,10.25
2018-10-07T04:32:15.951Z,10.23
2018-10-07T04:34:45.433Z,10.22
2018-10-07T04:37:14.246Z,10.18
2018-10-07T04:39:43.071Z,10.10
2018-10-07T04:42:11.936Z,10.07
2018-10-07T04:44:40.955Z,10.06
2018-10-07T04:47:10.232Z,10.06
2018-10-07T04:49:39.600Z,10.03
2018-10-07T04:52:08.964Z,10.03
2018-10-07T04:54:37.852Z,10.02
2018-10-07T04:57:06.741Z,10.01
2018-10-07T04:59:35.999Z,9.99
2018-10-07T05:02:05.176Z,9.99
2018-10-07T05:04:34.100Z,9.96
2018-10-07T05:07:03.254Z,9.96
2018-10-07T05:09:32.059Z,9.93
2018-10-07T05:12:03.408Z,9.89
2018-10-07T05:14:32.193Z,9.91
2018-10-07T05:17:01.379Z,9.85
2018-10-07T05:19:30.150Z,9.80
2018-10-07T05:21:58.894Z,9.75
2018-10-07T05:24:27.714Z,9.74
2018-10-07T05:26:56.899Z,9.73
2018-10-07T05:29:26.119Z,9.72
2018-10-07T05:31:54.860Z,9.72
2018-10-07T05:34:23.679Z,9.71
2018-10-07T05:36:52.513Z,9.67
2018-10-07T05:39:21.446Z,9.65
2018-10-07T05:41:50.192Z,9.64
2018-10-07T05:44:19.319Z,9.61
2018-10-07T05:46:48.367Z,9.60
2018-10-07T05:49:17.201Z,9.56
2018-10-07T05:51:46.263Z,9.56
2018-10-07T05:54:15.412Z,9.53
2018-10-07T05:56:44.588Z,9.52
2018-10-07T05:59:14.011Z,9.49
2018-10-07T06:01:45.912Z,9.47
2018-10-07T06:04:56.402Z,9.45
2018-10-07T06:07:26.682Z,9.41
2018-10-07T06:09:55.476Z,9.39
2018-10-07T06:12:24.285Z,9.37
2018-10-07T06:15:04.288Z,9.36
2018-10-07T06:17:33.105Z,9.33
2018-10-07T06:20:01.874Z,9.33
2018-10-07T06:22:30.640Z,9.31
2018-10-07T06:24:59.770Z,9.29
2018-10-07T06:27:28.668Z,9.28
2018-10-07T06:29:57.994Z,9.27
2018-10-07T06:32:26.740Z,9.27
2018-10-07T06:34:55.819Z,9.28
2018-10-07T06:37:25.546Z,9.28
2018-10-07T06:39:54.787Z,9.29
2018-10-07T06:42:23.627Z,9.30
2018-10-07T06:44:52.559Z,9.31
2018-10-07T06:47:21.835Z,9.31
2018-10-07T06:49:50.627Z,9.34
2018-10-07T06:52:19.491Z,9.35
2018-10-07T06:54:48.298Z,9.37
2018-10-07T06:57:17.108Z,9.39
2018-10-07T06:59:46.730Z,9.40
2018-10-07T07:02:15.483Z,9.42
2018-10-07T07:04:44.844Z,9.44
2018-10-07T07:07:13.957Z,9.44
2018-10-07T07:09:42.904Z,9.44
2018-10-07T07:12:11.939Z,9.45
2018-10-07T07:14:41.591Z,9.45
2018-10-07T07:17:10.504Z,9.47
2018-10-07T07:19:39.774Z,9.52
2018-10-07T07:22:08.594Z,9.56
2018-10-07T07:24:38.275Z,9.59
2018-10-07T07:27:07.489Z,9.64
2018-10-07T07:29:36.732Z,9.68
2018-10-07T07:32:05.588Z,9.71
2018-10-07T07:34:34.919Z,9.74
2018-10-07T07:37:03.711Z,9.77
2018-10-07T07:39:32.467Z,9.83
2018-10-07T07:42:01.635Z,9.91
2018-10-07T07:44:30.483Z,9.97
2018-10-07T07:46:59.384Z,10.00
2018-10-07T07:49:29.381Z,10.05
2018-10-07T07:51:58.426Z,10.14
2018-10-07T07:54:27.683Z,10.22
2018-10-07T07:56:56.754Z,10.29
2018-10-07T07:59:25.806Z,10.37
2018-10-07T08:01:54.882Z,10.44
2018-10-07T08:04:24.295Z,10.57
2018-10-07T08:06:53.166Z,10.68
2018-10-07T08:09:28.262Z,10.78
2018-10-07T08:11:57.341Z,10.93
2018-10-07T08:14:26.130Z,11.02
2018-10-07T08:16:55.042Z,11.15
2018-10-07T08:19:24.646Z,11.26
2018-10-07T08:21:53.739Z,11.38
2018-10-07T08:24:22.541Z,11.47
2018-10-07T08:26:55.063Z,11.58
2018-10-07T08:29:23.900Z,11.69
2018-10-07T08:31:52.729Z,11.81
2018-10-07T08:34:21.599Z,11.94
2018-10-07T08:36:51.517Z,12.05
2018-10-07T08:39:21.505Z,12.16
2018-10-07T08:41:50.643Z,12.26
2018-10-07T08:44:19.468Z,12.37
2018-10-07T08:46:48.244Z,12.40
2018-10-07T08:49:17.445Z,12.45
2018-10-07T08:51:46.478Z,12.57
2018-10-07T08:54:15.276Z,12.66
2018-10-07T08:56:44.466Z,12.74
2018-10-07T08:59:13.238Z,12.76
2018-10-07T09:01:42.359Z,12.81
2018-10-07T09:04:11.157Z,12.83
2018-10-07T09:06:40.209Z,12.88
2018-10-07T09:09:10.189Z,12.95
2018-10-07T09:11:39.389Z,13.03
2018-10-07T09:14:08.244Z,13.11
2018-10-07T09:16:38.857Z,13.15
2018-10-07T09:19:07.631Z,13.18
2018-10-07T09:21:37.713Z,13.23
2018-10-07T09:24:07.312Z,13.28
2018-10-07T09:26:36.574Z,13.34
2018-10-07T09:29:05.658Z,13.38
2018-10-07T09:31:34.763Z,13.46
2018-10-07T09:34:03.545Z,13.56
2018-10-07T09:36:32.296Z,13.66
2018-10-07T09:39:01.700Z,13.72
2018-10-07T09:41:30.564Z,13.71
2018-10-07T09:43:59.530Z,13.73
2018-10-07T09:46:29.012Z,13.82
2018-10-07T09:48:57.847Z,13.98
2018-10-07T09:51:26.946Z,14.11
2018-10-07T09:53:59.752Z,14.25
2018-10-07T09:56:28.811Z,14.38
2018-10-07T09:58:57.875Z,14.53
2018-10-07T10:01:26.935Z,14.71
2018-10-07T10:03:56.325Z,14.90
2018-10-07T10:06:25.804Z,14.98
2018-10-07T10:08:54.586Z,15.07
2018-10-07T10:11:23.480Z,15.12
2018-10-07T10:13:52.518Z,15.11
2018-10-07T10:16:31.229Z,15.09
2018-10-07T10:19:00.170Z,15.19
2018-10-07T10:21:35.906Z,15.39
2018-10-07T10:24:14.841Z,15.42
2018-10-07T10:27:03.874Z,15.41
2018-10-07T10:29:36.758Z,15.58
2018-10-07T10:32:14.913Z,15.70
2018-10-07T10:34:54.384Z,15.78
2018-10-07T10:37:29.379Z,15.85
2018-10-07T10:40:00.606Z,15.93
2018-10-07T10:42:52.698Z,15.79
2018-10-07T10:45:36.499Z,15.97
2018-10-07T10:49:23.066Z,16.20
2018-10-07T10:52:00.683Z,16.14
2018-10-07T10:54:46.897Z,16.21
2018-10-07T10:57:20.918Z,16.46
2018-10-07T11:00:12.954Z,16.72
2018-10-07T11:05:04.645Z,17.02
2018-10-07T11:08:12.985Z,17.51
2018-10-07T11:11:47.132Z,17.76
2018-10-07T11:15:31.609Z,17.94
2018-10-07T11:18:10.244Z,18.01
2018-10-07T11:23:17.674Z,18.11
2018-10-07T11:25:56.781Z,18.53
2018-10-07T11:30:39.964Z,18.58
2018-10-07T11:33:18.462Z,18.49
2018-10-07T11:38:00.007Z,18.36
2018-10-07T11:41:36.228Z,18.73
2018-10-07T11:44:11.734Z,19.18
2018-10-07T11:46:59.859Z,19.49
2018-10-07T11:50:36.330Z,19.59
2018-10-07T11:53:16.304Z,19.55
2018-10-07T11:55:45.694Z,19.27
2018-10-07T11:58:14.483Z,19.13
2018-10-07T12:00:43.249Z,18.94
2018-10-07T12:03:11.994Z,18.89
2018-10-07T12:05:40.910Z,18.72
2018-10-07T12:08:09.726Z,18.53
2018-10-07T12:10:38.998Z,18.31
2018-10-07T12:13:08.579Z,18.03
2018-10-07T12:15:37.657Z,17.97
2018-10-07T12:18:06.502Z,17.97
2018-10-07T12:20:35.904Z,18.08
2018-10-07T12:23:04.715Z,18.34
2018-10-07T12:25:33.915Z,18.64
2018-10-07T12:28:03.124Z,18.80
2018-10-07T12:30:31.931Z,18.79
2018-10-07T12:33:00.697Z,18.80
2018-10-07T12:35:30.028Z,18.82
2018-10-07T12:37:59.305Z,18.74
2018-10-07T12:40:28.123Z,18.68
2018-10-07T12:42:56.888Z,18.79
2018-10-07T12:45:25.647Z,18.88
2018-10-07T12:47:54.868Z,19.01
2018-10-07T12:50:23.935Z,19.11
2018-10-07T12:52:55.307Z,19.18
2018-10-07T12:55:24.192Z,19.37
2018-10-07T12:57:53.701Z,19.54
2018-10-07T13:00:22.462Z,19.54
2018-10-07T13:02:51.293Z,19.48
2018-10-07T13:05:20.324Z,19.49
2018-10-07T13:07:49.287Z,18.99
2018-10-07T13:10:18.625Z,18.63
2018-10-07T13:12:47.419Z,18.32
2018-10-07T13:15:16.298Z,17.98
2018-10-07T13:17:45.555Z,17.88
2018-10-07T13:20:14.399Z,17.83
2018-10-07T13:22:43.483Z,17.78
2018-10-07T13:25:12.241Z,17.84
2018-10-07T13:27:41.326Z,17.91
2018-10-07T13:30:10.367Z,17.84
2018-10-07T13:32:39.576Z,17.68
2018-10-07T13:35:08.338Z,17.82
2018-10-07T13:37:37.173Z,17.89
2018-10-07T13:40:06.056Z,18.01
2018-10-07T13:42:35.187Z,18.03
2018-10-07T13:45:03.954Z,18.04
2018-10-07T13:47:32.751Z,17.97
2018-10-07T13:50:02.589Z,17.95
2018-10-07T13:52:31.579Z,18.05
2018-10-07T13:55:00.349Z,18.15
2018-10-07T13:57:29.412Z,18.26
2018-10-07T13:59:58.266Z,18.38
2018-10-07T14:02:27.266Z,18.54
2018-10-07T14:04:56.148Z,18.80
2018-10-07T14:07:24.962Z,18.99
2018-10-07T14:09:54.002Z,19.15
2018-10-07T14:12:22.766Z,19.29
2018-10-07T14:14:51.609Z,19.36
2018-10-07T14:17:20.652Z,19.46
2018-10-07T14:19:49.394Z,19.42
2018-10-07T14:22:18.462Z,19.31
2018-10-07T14:24:47.951Z,19.17
2018-10-07T14:27:17.203Z,19.12
2018-10-07T14:29:46.252Z,19.01
2018-10-07T14:32:15.052Z,18.91
2018-10-07T14:34:43.903Z,18.75
2018-10-07T14:37:13.351Z,18.62
2018-10-07T14:39:42.159Z,18.52
2018-10-07T14:42:11.111Z,18.42
2018-10-07T14:44:39.904Z,18.42
2018-10-07T14:47:08.709Z,18.47
2018-10-07T14:49:37.885Z,18.53
2018-10-07T14:52:06.779Z,18.52
2018-10-07T14:54:35.595Z,18.20
2018-10-07T14:57:04.510Z,17.96
2018-10-07T14:59:33.891Z,17.62
2018-10-07T15:02:02.754Z,17.45
2018-10-07T15:04:31.776Z,17.46
2018-10-07T15:07:00.730Z,17.43
2018-10-07T15:09:29.619Z,17.38
2018-10-07T15:11:58.361Z,17.31
2018-10-07T15:14:27.116Z,17.16
2018-10-07T15:16:55.934Z,16.99
2018-10-07T15:19:24.771Z,16.89
2018-10-07T15:21:53.562Z,16.85
2018-10-07T15:24:22.808Z,16.84
2018-10-07T15:26:52.140Z,16.83
2018-10-07T15:29:21.338Z,16.83
2018-10-07T15:31:50.700Z,16.86
2018-10-07T15:34:19.787Z,16.86
2018-10-07T15:36:48.661Z,16.81
2018-10-07T15:39:17.967Z,16.70
2018-10-07T15:41:47.824Z,16.60
2018-10-07T15:44:16.686Z,16.50
2018-10-07T15:46:45.463Z,16.43
2018-10-07T15:49:14.464Z,16.30
2018-10-07T15:51:43.667Z,16.23
2018-10-07T15:54:12.636Z,16.12
2018-10-07T15:56:41.861Z,16.09
2018-10-07T15:59:10.826Z,16.01
2018-10-07T16:01:39.590Z,15.87
2018-10-07T16:04:08.476Z,15.87
2018-10-07T16:06:37.262Z,15.88
2018-10-07T16:09:08.190Z,15.77
2018-10-07T16:11:37.269Z,15.70
2018-10-07T16:14:06.568Z,15.67
2018-10-07T16:16:41.626Z,15.59
2018-10-07T16:19:10.533Z,15.46
2018-10-07T16:21:39.243Z,15.40
2018-10-07T16:24:08.184Z,15.33
2018-10-07T16:26:37.047Z,15.29
2018-10-07T16:29:06.017Z,15.28
2018-10-07T16:31:35.237Z,15.21
2018-10-07T16:34:04.705Z,15.14
2018-10-07T16:36:33.612Z,15.05
2018-10-07T16:39:02.623Z,14.93
2018-10-07T16:41:31.544Z,14.82
2018-10-07T16:44:00.461Z,14.79
2018-10-07T16:46:30.198Z,14.69
2018-10-07T16:48:59.237Z,14.59
2018-10-07T16:51:28.441Z,14.47
2018-10-07T16:53:57.350Z,14.40
2018-10-07T16:56:26.591Z,14.36
2018-10-07T16:58:55.382Z,14.25
2018-10-07T17:01:24.155Z,14.12
2018-10-07T17:03:53.198Z,14.05
2018-10-07T17:06:22.148Z,13.96
2018-10-07T17:08:50.926Z,13.95
2018-10-07T17:11:19.995Z,13.87
2018-10-07T17:13:48.814Z,13.83
2018-10-07T17:16:17.893Z,13.82
2018-10-07T17:18:47.694Z,13.74
2018-10-07T17:21:16.542Z,13.67
2018-10-07T17:23:46.827Z,13.65
2018-10-07T17:26:16.133Z,13.66
2018-10-07T17:28:45.534Z,13.63
2018-10-07T17:31:15.218Z,13.54
2018-10-07T17:36:22.404Z,13.43
2018-10-07T17:38:51.401Z,13.37
2018-10-07T17:41:20.267Z,13.30
2018-10-07T17:43:49.138Z,13.25
2018-10-07T17:46:18.551Z,13.18
2018-10-07T17:48:47.808Z,13.15
2018-10-07T17:51:16.568Z,13.11
2018-10-07T17:53:45.849Z,13.08
2018-10-07T17:56:14.778Z,13.01
2018-10-07T17:58:43.869Z,12.94
2018-10-07T18:01:12.812Z,12.92
2018-10-07T18:03:41.795Z,12.88
2018-10-07T18:06:11.049Z,12.83
2018-10-07T18:08:40.024Z,12.79
2018-10-07T18:11:08.873Z,12.75
2018-10-07T18:13:37.752Z,12.69
2018-10-07T18:16:07.560Z,12.60
2018-10-07T18:18:36.745Z,12.54
2018-10-07T18:21:05.936Z,12.50
2018-10-07T18:23:34.836Z,12.43
2018-10-07T18:26:03.870Z,12.36
2018-10-07T18:28:33.049Z,12.33
2018-10-07T18:31:02.039Z,12.31
2018-10-07T18:33:30.938Z,12.26
2018-10-07T18:36:05.771Z,12.20
2018-10-07T18:38:34.930Z,12.15
2018-10-07T18:41:04.498Z,12.09
2018-10-07T18:43:33.307Z,12.03
2018-10-07T18:46:02.415Z,11.96
2018-10-07T18:48:31.548Z,11.92
2018-10-07T18:51:00.814Z,11.87
2018-10-07T18:53:29.672Z,11.83
2018-10-07T18:55:58.838Z,11.79
2018-10-07T18:58:27.724Z,11.74
2018-10-07T19:00:56.918Z,11.70
2018-10-07T19:03:25.941Z,11.65
2018-10-07T19:05:55.486Z,11.59
2018-10-07T19:08:25.275Z,11.52
2018-10-07T19:10:54.079Z,11.47
2018-10-07T19:13:23.130Z,11.43
2018-10-07T19:15:52.093Z,11.38
2018-10-07T19:18:21.283Z,11.32
2018-10-07T19:20:50.321Z,11.27
2018-10-07T19:23:19.092Z,11.21
2018-10-07T19:25:47.977Z,11.16
2018-10-07T19:28:16.836Z,11.10
2018-10-07T19:30:46.029Z,11.04
2018-10-07T19:33:14.957Z,11.00
2018-10-07T19:35:44.332Z,10.94
2018-10-07T19:38:13.110Z,10.91
2018-10-07T19:40:42.368Z,10.86
2018-10-07T19:43:11.642Z,10.83
2018-10-07T19:45:40.429Z,10.80
2018-10-07T19:48:09.271Z,10.77
2018-10-07T19:50:38.532Z,10.73
2018-10-07T19:53:07.823Z,10.69
2018-10-07T19:55:36.740Z,10.65
2018-10-07T19:58:05.888Z,10.62
2018-10-07T20:00:35.604Z,10.58
2018-10-07T20:03:05.590Z,10.52
2018-10-07T20:05:34.377Z,10.46
2018-10-07T20:08:03.132Z,10.40
2018-10-07T20:10:32.254Z,10.33
2018-10-07T20:13:01.639Z,10.26
2018-10-07T20:15:32.470Z,10.22
2018-10-07T20:18:02.029Z,10.21
2018-10-07T20:20:31.925Z,10.18
2018-10-07T20:23:01.279Z,10.15
2018-10-07T20:25:37.588Z,10.13
2018-10-07T20:28:07.671Z,10.10
2018-10-07T20:30:37.776Z,10.05
2018-10-07T20:33:07.772Z,10.02
2018-10-07T20:35:37.603Z,10.00
2018-10-07T20:38:07.274Z,9.96
2018-10-07T20:40:37.759Z,9.95
2018-10-07T20:43:07.469Z,9.91
2018-10-07T20:45:37.449Z,9.90
2018-10-07T20:48:07.517Z,9.86
2018-10-07T20:50:37.197Z,9.81
2018-10-07T20:53:07.548Z,9.77
2018-10-07T20:55:37.384Z,9.75
2018-10-07T20:58:07.463Z,9.72
2018-10-07T21:00:37.387Z,9.68
2018-10-07T21:03:07.012Z,9.66
2018-10-07T21:05:36.545Z,9.60
2018-10-07T21:08:06.192Z,9.56
2018-10-07T21:10:35.871Z,9.54
2018-10-07T21:13:05.716Z,9.51
2018-10-07T21:15:35.481Z,9.47
2018-10-07T21:18:05.513Z,9.41
2018-10-07T21:20:35.771Z,9.37
2018-10-07T21:23:05.788Z,9.34
2018-10-07T21:25:35.517Z,9.30
2018-10-07T21:28:05.032Z,9.25
2018-10-07T21:30:34.665Z,9.22
2018-10-07T21:33:04.743Z,9.17
2018-10-07T21:35:34.543Z,9.12
2018-10-07T21:38:04.164Z,9.09
2018-10-07T21:40:33.281Z,9.06
2018-10-07T21:43:02.100Z,9.04
2018-10-07T21:45:30.993Z,9.00
2018-10-07T21:47:59.791Z,8.97
2018-10-07T21:50:28.561Z,8.93
2018-10-07T21:52:57.711Z,8.91
2018-10-07T21:55:26.431Z,8.87
2018-10-07T21:57:55.510Z,8.83
2018-10-07T22:00:24.993Z,8.80
2018-10-07T22:02:54.054Z,8.76
2018-10-07T22:05:23.163Z,8.74
2018-10-07T22:07:51.978Z,8.70
2018-10-07T22:10:20.793Z,8.65
2018-10-07T22:12:49.930Z,8.63
2018-10-07T22:15:18.787Z,8.59
2018-10-07T22:17:47.606Z,8.55
2018-10-07T22:20:16.415Z,8.50
2018-10-07T22:22:45.288Z,8.46
2018-10-07T22:25:14.040Z,8.41
2018-10-07T22:27:42.834Z,8.38
2018-10-07T22:30:13.276Z,8.33
2018-10-07T22:32:42.430Z,8.30
2018-10-07T22:35:11.527Z,8.25
2018-10-07T22:37:40.792Z,8.21
2018-10-07T22:40:09.575Z,8.21
2018-10-07T22:42:38.350Z,8.20
2018-10-07T22:45:07.649Z,8.20
2018-10-07T22:47:36.686Z,8.20
2018-10-07T22:50:05.519Z,8.17
2018-10-07T22:52:34.503Z,8.15
2018-10-07T22:55:03.318Z,8.13
2018-10-07T22:57:32.088Z,8.09
2018-10-07T23:00:01.789Z,8.06
2018-10-07T23:02:30.751Z,8.04
2018-10-07T23:05:00.155Z,8.02
2018-10-07T23:07:29.238Z,8.01
2018-10-07T23:09:58.044Z,7.99
2018-10-07T23:12:27.207Z,7.96
2018-10-07T23:14:56.404Z,7.95
2018-10-07T23:17:25.558Z,7.95
2018-10-07T23:19:54.303Z,7.95
2018-10-07T23:22:23.070Z,7.94
2018-10-07T23:24:52.131Z,7.92
2018-10-07T23:27:20.909Z,7.91
2018-10-07T23:29:49.639Z,7.87
2018-10-07T23:32:18.440Z,7.86
2018-10-07T23:34:47.451Z,7.84
2018-10-07T23:37:16.639Z,7.84
2018-10-07T23:39:45.469Z,7.85
2018-10-07T23:42:14.286Z,7.82
2018-10-07T23:44:43.529Z,7.82
2018-10-07T23:47:12.542Z,7.79
2018-10-07T23:49:41.411Z,7.78
2018-10-07T23:52:10.276Z,7.76
2018-10-07T23:54:39.334Z,7.75
2018-10-07T23:57:08.240Z,7.73
2018-10-07T23:59:37.310Z,7.72
